Time;durP1;ratioP1;P1;durP2;ratioP2;P2;SDS_P1;SDS_P2;PMS_P1;PMS_P2;Temp;Humidity;BMP_temperature;BMP_pressure;BME280_temperature;BME280_humidity;BME280_pressure;Samples;Min_cycle;Max_cycle;Signal;HPM_P1;HPM_P2
2023/11/16 00:01:02;;;;;;;5.77;2.63;;;8.60;91.20;;;10.39;62.31;97894.09;5012336;28;20041;-67
2023/11/16 00:03:29;;;;;;;3.03;1.67;;;8.60;91.00;;;10.40;62.06;97903.78;5011178;28;20049;-67
2023/11/16 00:05:57;;;;;;;4.70;1.80;;;8.60;91.50;;;10.41;62.60;97906.28;5012528;28;20038;-67
2023/11/16 00:08:25;;;;;;;3.77;1.50;;;8.60;91.50;;;10.41;62.46;97908.97;5003895;28;20045;-67
2023/11/16 00:10:54;;;;;;;5.60;1.60;;;8.60;91.80;;;10.43;62.27;97903.47;5011971;28;20492;-67
2023/11/16 00:13:22;;;;;;;3.50;1.80;;;8.60;92.00;;;10.43;62.53;97908.81;5010626;28;20037;-67
2023/11/16 00:15:50;;;;;;;2.27;1.70;;;8.60;92.70;;;10.41;62.71;97908.97;5012364;28;20351;-66
2023/11/16 00:18:18;;;;;;;2.17;1.70;;;8.60;92.90;;;10.43;62.66;97908.81;5012176;28;20042;-67
2023/11/16 00:20:46;;;;;;;4.03;1.60;;;8.70;92.70;;;10.49;62.70;97896.69;5012001;28;20038;-67
2023/11/16 00:23:13;;;;;;;5.83;1.93;;;8.70;92.20;;;10.46;62.59;97902.34;5010617;28;20046;-67
2023/11/16 00:25:41;;;;;;;2.47;1.80;;;8.70;92.00;;;10.46;62.44;97900.50;5010090;28;20048;-67
2023/11/16 00:28:09;;;;;;;2.83;1.37;;;8.70;92.20;;;10.46;62.95;97900.50;5011883;28;20073;-67
2023/11/16 00:30:36;;;;;;;4.53;1.53;;;8.70;91.90;;;10.47;62.95;97893.34;5012004;28;20050;-67
2023/11/16 00:33:04;;;;;;;3.93;1.80;;;8.70;92.20;;;10.49;62.87;97900.19;5011172;28;20072;-67
2023/11/16 00:35:32;;;;;;;3.33;1.50;;;8.70;92.20;;;10.50;62.66;97901.03;5011951;28;20486;-67
2023/11/16 00:38:00;;;;;;;2.17;1.47;;;8.70;92.20;;;10.47;62.98;97898.66;5011878;28;20046;-67
2023/11/16 00:40:32;;;;;;;6.70;1.73;;;8.70;92.40;;;10.49;62.91;97902.88;5011071;28;20042;-68
2023/11/16 00:43:00;;;;;;;2.43;1.43;;;8.70;93.10;;;10.44;63.11;97895.31;5010564;28;20057;-66
2023/11/16 00:45:27;;;;;;;4.33;1.70;;;8.60;93.10;;;10.49;62.80;97900.19;5011721;28;20033;-66
2023/11/16 00:47:55;;;;;;;5.97;2.00;;;8.60;92.90;;;10.47;62.97;97888.88;5010367;28;20037;-66
2023/11/16 00:50:23;;;;;;;4.30;1.60;;;8.70;92.90;;;10.46;62.99;97897.00;4994463;28;20073;-66
2023/11/16 00:52:50;;;;;;;5.23;1.70;;;8.60;93.10;;;10.46;62.98;97897.00;5011359;28;20041;-66
2023/11/16 00:55:18;;;;;;;5.23;2.40;;;8.70;92.70;;;10.46;63.33;97892.50;5011347;28;20052;-67
2023/11/16 00:57:47;;;;;;;4.17;1.70;;;8.70;93.00;;;10.47;62.94;97890.69;5011541;28;20042;-66
2023/11/16 01:00:16;;;;;;;4.73;1.67;;;8.70;92.40;;;10.44;62.96;97881.19;5010329;28;20530;-66
2023/11/16 01:02:48;;;;;;;3.23;1.43;;;8.60;92.90;;;10.44;63.33;97887.34;5009901;28;20501;-66
2023/11/16 01:05:17;;;;;;;4.78;1.58;;;8.60;93.50;;;10.43;63.21;97872.38;5011005;28;20051;-66
2023/11/16 01:07:45;;;;;;;4.30;1.57;;;8.60;93.00;;;10.43;63.18;97875.03;5011735;28;20052;-66
2023/11/16 01:10:17;;;;;;;4.20;1.40;;;8.60;93.20;;;10.43;63.32;97876.88;5011424;28;20067;-67
2023/11/16 01:12:45;;;;;;;3.87;1.50;;;8.50;93.20;;;10.40;63.37;97878.00;5009970;28;20045;-67
2023/11/16 01:15:14;;;;;;;5.17;2.20;;;8.50;93.40;;;10.42;63.35;97878.66;5010285;28;20042;-66
2023/11/16 01:17:45;;;;;;;4.27;1.73;;;8.50;93.30;;;10.43;63.22;97877.69;5010301;28;20045;-67
2023/11/16 01:20:18;;;;;;;1.50;1.40;;;8.60;93.00;;;10.42;63.66;97870.69;5009919;28;20050;-66
2023/11/16 01:23:09;;;;;;;3.65;1.40;;;8.50;93.60;;;10.41;63.46;97870.84;5011209;28;20038;-66
2023/11/16 01:25:43;;;;;;;2.60;1.60;;;8.50;94.10;;;10.39;63.29;97876.34;5007138;28;20487;-66
2023/11/16 01:28:11;;;;;;;3.80;1.88;;;8.50;93.90;;;10.35;63.73;97872.31;4998302;28;20042;-66
2023/11/16 01:30:38;;;;;;;2.77;1.80;;;8.40;94.30;;;10.36;63.56;97873.97;5014030;28;20247;-66
2023/11/16 01:33:08;;;;;;;4.67;1.80;;;8.50;93.80;;;10.38;63.82;97869.31;5013825;28;20057;-67
2023/11/16 01:35:42;;;;;;;2.53;1.50;;;8.60;93.30;;;10.40;63.36;97866.53;5014070;28;20050;-66
2023/11/16 01:38:12;;;;;;;4.20;1.30;;;8.60;92.00;;;10.43;62.99;97866.22;5014850;28;20410;-66
2023/11/16 01:40:40;;;;;;;2.37;1.33;;;8.70;92.50;;;10.37;63.59;97875.66;5014043;28;20382;-66
2023/11/16 01:43:09;;;;;;;6.50;1.70;;;8.60;91.90;;;10.38;63.42;97877.31;5013729;28;20053;-66
2023/11/16 01:45:37;;;;;;;4.00;1.60;;;8.60;92.90;;;10.36;63.38;97878.47;5013464;28;20121;-67
2023/11/16 01:48:07;;;;;;;2.77;2.27;;;8.60;93.00;;;10.32;63.26;97864.63;5013766;28;20061;-67
2023/11/16 01:50:39;;;;;;;4.33;1.60;;;8.50;93.60;;;10.29;63.62;97869.38;4997717;28;20042;-67
2023/11/16 01:53:13;;;;;;;3.07;2.07;;;8.50;93.80;;;10.31;63.83;97876.25;5013540;28;20499;-67
2023/11/16 01:55:44;;;;;;;4.67;1.60;;;8.50;94.40;;;10.35;63.52;97876.78;5006232;28;20045;-67
2023/11/16 01:58:14;;;;;;;3.10;1.93;;;8.60;94.30;;;10.38;64.09;97879.16;4996862;28;20420;-67
2023/11/16 02:00:43;;;;;;;4.93;1.63;;;8.60;94.40;;;10.39;63.62;97878.13;5013397;28;20431;-67
2023/11/16 02:03:11;;;;;;;10.53;4.27;;;8.60;94.00;;;10.43;63.89;97888.34;5014129;28;20065;-67
2023/11/16 02:05:40;;;;;;;8.67;3.53;;;8.60;94.40;;;10.43;63.85;97896.31;5014593;28;20041;-66
2023/11/16 02:08:11;;;;;;;6.07;3.37;;;8.60;94.80;;;10.41;63.93;97900.97;4997134;28;20060;-67
2023/11/16 02:10:41;;;;;;;7.67;2.80;;;8.60;95.20;;;10.39;63.75;97891.44;5005860;28;20049;-67
2023/11/16 02:13:26;;;;;;;6.77;3.03;;;8.50;96.10;;;10.41;64.19;97893.00;5012977;28;20495;-66
2023/11/16 02:15:55;;;;;;;6.00;2.00;;;8.60;96.70;;;10.46;64.23;97889.84;5007483;28;20038;-67
2023/11/16 02:18:25;;;;;;;5.03;2.37;;;8.60;96.50;;;10.49;64.20;97878.91;5013166;28;20050;-66
2023/11/16 02:20:54;;;;;;;3.73;1.80;;;8.70;96.60;;;10.54;64.01;97883.75;5014126;28;20038;-67
2023/11/16 02:23:24;;;;;;;5.67;2.03;;;8.70;96.00;;;10.56;64.05;97876.44;5012436;28;20049;-66
2023/11/16 02:25:56;;;;;;;5.27;1.73;;;8.70;95.40;;;10.52;63.89;97861.78;5012680;28;20426;-67
2023/11/16 02:28:24;;;;;;;5.37;1.73;;;8.60;95.60;;;10.47;64.24;97867.59;5012964;28;20072;-67
2023/11/16 02:30:52;;;;;;;3.97;1.60;;;8.50;96.30;;;10.43;64.17;97860.91;5012649;28;20049;-66
2023/11/16 02:33:20;;;;;;;2.23;1.57;;;8.40;96.60;;;10.41;63.80;97868.16;5013493;28;20426;-67
2023/11/16 02:35:48;;;;;;;2.53;1.67;;;8.40;96.00;;;10.35;64.07;97884.75;5012822;28;20053;-66
2023/11/16 02:38:17;;;;;;;3.33;1.47;;;8.40;96.00;;;10.31;64.12;97883.41;5012640;28;20042;-67
2023/11/16 02:40:45;;;;;;;6.83;1.67;;;8.40;95.60;;;10.28;64.16;97873.88;5012973;28;20046;-67
2023/11/16 02:43:13;;;;;;;6.27;1.73;;;8.50;95.10;;;10.27;64.39;97869.53;5013310;28;20053;-67
2023/11/16 02:45:41;;;;;;;6.10;1.80;;;8.50;95.00;;;10.28;64.06;97863.25;5012838;28;20046;-66
2023/11/16 02:48:09;;;;;;;4.63;1.53;;;8.50;94.70;;;10.29;64.28;97850.75;5013633;28;20415;-67
2023/11/16 02:50:37;;;;;;;2.93;1.63;;;8.60;93.20;;;10.32;64.44;97840.69;5012797;28;20049;-67
2023/11/16 02:53:05;;;;;;;3.20;1.33;;;8.60;93.00;;;10.29;63.97;97838.28;5013167;28;20046;-67
2023/11/16 02:55:34;;;;;;;2.57;1.40;;;8.60;92.70;;;10.27;64.14;97842.09;5012267;28;20065;-67
2023/11/16 02:58:02;;;;;;;4.90;2.43;;;8.60;92.90;;;10.34;64.24;97844.03;5012388;28;20049;-67
2023/11/16 03:00:31;;;;;;;4.30;1.67;;;8.60;92.10;;;10.32;63.72;97834.53;5012154;28;20431;-67
2023/11/16 03:03:02;;;;;;;5.77;2.57;;;8.60;91.50;;;10.37;63.54;97822.44;5012114;28;20046;-67
2023/11/16 03:05:32;;;;;;;5.03;1.57;;;8.70;91.10;;;10.38;63.46;97826.75;5012393;28;20085;-67
2023/11/16 03:08:00;;;;;;;3.27;1.70;;;8.70;90.60;;;10.35;63.50;97823.56;5012465;28;20060;-67
2023/11/16 03:10:28;;;;;;;4.33;1.30;;;8.60;90.10;;;10.37;63.41;97830.41;5012317;28;20058;-67
2023/11/16 03:12:56;;;;;;;3.33;1.10;;;8.60;90.00;;;10.37;63.01;97821.56;5011964;28;20042;-67
2023/11/16 03:15:24;;;;;;;4.60;1.20;;;8.60;90.00;;;10.40;62.95;97821.28;5012225;28;20061;-67
2023/11/16 03:17:52;;;;;;;5.90;1.20;;;8.70;89.30;;;10.39;63.07;97814.25;5012263;28;20045;-67
2023/11/16 03:20:20;;;;;;;2.40;1.00;;;8.70;88.70;;;10.33;63.30;97809.56;5011600;28;20046;-67
2023/11/16 03:22:48;;;;;;;4.10;1.40;;;8.60;90.00;;;10.34;63.01;97804.09;5011725;28;20049;-67
2023/11/16 03:25:16;;;;;;;4.63;1.50;;;8.60;89.70;;;10.35;62.89;97800.47;5011345;28;20061;-67
2023/11/16 03:27:44;;;;;;;4.93;1.30;;;8.60;89.50;;;10.39;63.05;97795.63;4995632;28;20061;-67
2023/11/16 03:30:16;;;;;;;4.33;2.00;;;8.60;88.90;;;10.40;62.48;97782.19;5012875;28;20047;-67
2023/11/16 03:32:45;;;;;;;2.53;1.40;;;8.70;88.60;;;10.40;62.53;97784.00;5011086;28;20046;-67
2023/11/16 03:35:15;;;;;;;2.87;1.47;;;8.60;89.00;;;10.34;62.95;97780.16;5012907;28;20049;-67
2023/11/16 03:37:43;;;;;;;4.10;1.30;;;8.60;88.70;;;10.33;62.46;97775.84;5011649;28;20049;-67
2023/11/16 03:40:12;;;;;;;3.20;1.70;;;8.50;89.30;;;10.34;62.88;97771.34;5011565;28;20050;-67
2023/11/16 03:42:40;;;;;;;3.80;1.60;;;8.50;89.50;;;10.35;62.76;97770.31;5012479;28;20534;-66
2023/11/16 03:45:08;;;;;;;3.20;1.47;;;8.50;89.20;;;10.34;62.42;97774.81;5011135;28;20045;-67
2023/11/16 03:47:35;;;;;;;2.30;0.97;;;8.40;88.90;;;10.30;62.30;97775.28;5011557;28;20057;-67
2023/11/16 03:50:04;;;;;;;2.23;1.30;;;8.40;89.30;;;10.28;62.50;97791.38;5011501;28;20046;-67
2023/11/16 03:52:31;;;;;;;2.80;1.60;;;8.40;89.60;;;10.27;62.46;97792.38;5011215;28;20065;-67
2023/11/16 03:54:59;;;;;;;2.67;1.50;;;8.40;90.00;;;10.27;62.25;97786.22;5012499;28;20038;-67
2023/11/16 03:57:27;;;;;;;3.23;1.43;;;8.40;89.70;;;10.24;62.25;97798.84;5012248;28;20042;-67
2023/11/16 03:59:54;;;;;;;3.67;1.57;;;8.40;90.10;;;10.22;62.66;97797.34;5011536;28;20411;-68
2023/11/16 04:02:22;;;;;;;2.40;1.30;;;8.30;90.50;;;10.18;62.83;97812.78;5010724;28;20050;-67
2023/11/16 04:04:50;;;;;;;3.83;1.50;;;8.30;90.30;;;10.16;62.88;97811.25;5010987;28;20042;-67
2023/11/16 04:07:17;;;;;;;3.07;1.60;;;8.30;91.30;;;10.14;62.67;97799.91;5011354;28;20057;-67
2023/11/16 04:09:45;;;;;;;3.20;1.40;;;8.20;92.20;;;10.12;63.18;97799.22;5012167;28;20038;-66
2023/11/16 04:12:13;;;;;;;2.63;1.40;;;8.20;92.20;;;10.11;62.95;97789.59;5010623;28;20049;-67
2023/11/16 04:14:41;;;;;;;1.90;1.30;;;8.30;92.40;;;10.11;63.43;97781.63;5011117;28;20065;-66
2023/11/16 04:17:13;;;;;;;3.00;1.37;;;8.20;92.40;;;10.10;63.38;97787.91;5012096;28;20045;-67
2023/11/16 04:19:41;;;;;;;3.47;1.53;;;8.20;93.10;;;10.12;63.51;97772.63;5011802;28;20057;-67
2023/11/16 04:22:10;;;;;;;4.43;1.73;;;8.30;93.10;;;10.13;63.67;97769.00;5012042;28;20045;-68
2023/11/16 04:25:11;;;;;;;2.53;1.40;;;8.20;93.30;;;10.10;63.27;97767.50;5009721;28;20491;-67
2023/11/16 04:27:39;;;;;;;3.33;1.67;;;8.20;93.10;;;10.13;63.32;97776.97;5011962;28;20169;-67
2023/11/16 04:30:07;;;;;;;1.83;1.47;;;8.20;93.80;;;10.13;63.51;97774.31;5011622;28;20057;-67
2023/11/16 04:32:35;;;;;;;2.53;1.30;;;8.20;93.70;;;10.09;63.82;97770.31;5010665;28;20056;-67
2023/11/16 04:35:08;;;;;;;3.40;1.40;;;8.20;93.80;;;10.09;63.92;97767.63;5011409;28;20046;-67
2023/11/16 04:37:38;;;;;;;4.63;1.50;;;8.20;93.80;;;10.08;63.51;97771.28;5012209;28;20491;-67
2023/11/16 04:40:13;;;;;;;1.87;0.97;;;8.20;94.40;;;10.12;63.50;97773.50;5011868;28;20494;-67
2023/11/16 04:42:42;;;;;;;3.37;1.53;;;8.20;94.50;;;10.14;63.84;97765.34;5011240;28;20060;-66
2023/11/16 04:45:12;;;;;;;1.53;1.20;;;8.20;93.20;;;10.16;63.35;97769.53;5012028;28;20415;-67
2023/11/16 04:47:44;;;;;;;5.27;1.30;;;8.30;93.20;;;10.19;63.23;97765.72;5011822;28;20045;-67
2023/11/16 04:50:17;;;;;;;2.13;1.33;;;8.30;92.90;;;10.22;63.07;97766.25;5011582;28;20069;-67
2023/11/16 04:52:45;;;;;;;3.27;1.90;;;8.40;92.10;;;10.24;63.34;97769.56;5011118;28;20046;-67
2023/11/16 04:55:15;;;;;;;3.53;1.50;;;8.40;91.70;;;10.25;63.20;97765.09;5011679;28;20400;-67
2023/11/16 04:57:43;;;;;;;2.90;2.27;;;8.40;91.30;;;10.24;63.24;97763.44;5010165;28;20051;-67
2023/11/16 05:00:13;;;;;;;3.73;2.27;;;8.30;92.20;;;10.25;63.20;97755.28;5011442;28;20495;-67
2023/11/16 05:02:43;;;;;;;5.23;1.80;;;8.40;92.60;;;10.25;63.51;97763.28;5011075;28;20519;-67
2023/11/16 05:05:10;;;;;;;5.17;1.60;;;8.30;92.40;;;10.24;63.44;97758.09;5011255;28;20069;-67
2023/11/16 05:07:38;;;;;;;2.37;1.40;;;8.30;92.10;;;10.24;63.45;97750.94;5011579;28;20411;-68
2023/11/16 05:10:10;;;;;;;5.07;1.57;;;8.40;92.80;;;10.27;63.36;97748.97;5011321;28;20042;-67
2023/11/16 05:12:41;;;;;;;2.43;1.30;;;8.30;92.70;;;10.23;63.36;97743.13;5009618;28;20046;-67
2023/11/16 05:15:10;;;;;;;2.90;1.30;;;8.30;93.10;;;10.20;63.48;97743.44;5011168;28;20045;-67
2023/11/16 05:17:38;;;;;;;2.57;1.50;;;8.30;93.10;;;10.17;63.61;97744.56;5011091;28;20046;-67
2023/11/16 05:20:08;;;;;;;2.10;1.50;;;8.30;93.50;;;10.16;63.63;97745.59;5011347;28;20038;-67
2023/11/16 05:22:35;;;;;;;6.47;1.30;;;8.30;93.50;;;10.17;63.62;97752.56;5010841;28;20053;-67
2023/11/16 05:25:06;;;;;;;4.00;1.43;;;8.30;93.10;;;10.19;63.79;97747.91;5011441;28;20042;-67
2023/11/16 05:27:34;;;;;;;5.37;1.87;;;8.30;92.80;;;10.24;63.72;97744.81;5010452;28;20057;-67
2023/11/16 05:30:02;;;;;;;4.90;1.50;;;8.40;92.10;;;10.25;63.34;97751.78;5011078;28;20121;-67
2023/11/16 05:32:29;;;;;;;4.07;1.50;;;8.40;91.90;;;10.25;63.38;97744.66;5011117;28;20046;-67
2023/11/16 05:34:57;;;;;;;4.30;2.33;;;8.40;92.70;;;10.22;63.15;97736.97;5011650;28;20049;-67
2023/11/16 05:37:25;;;;;;;6.73;2.90;;;8.40;92.60;;;10.22;63.64;97720.19;5011042;28;20100;-67
2023/11/16 05:39:52;;;;;;;4.63;1.93;;;8.40;92.30;;;10.19;63.60;97717.81;5010707;28;20053;-67
2023/11/16 05:42:20;;;;;;;5.43;2.67;;;8.40;92.30;;;10.18;63.48;97724.16;5011001;28;20046;-67
2023/11/16 05:44:48;;;;;;;5.10;1.87;;;8.40;92.30;;;10.14;63.91;97722.75;5011309;28;20053;-67
2023/11/16 05:47:15;;;;;;;4.17;1.73;;;8.40;91.60;;;10.13;63.50;97719.28;5011041;28;20054;-68
2023/11/16 05:49:43;;;;;;;6.87;1.50;;;8.40;91.80;;;10.12;63.77;97714.97;5010876;28;20062;-67
2023/11/16 05:52:11;;;;;;;3.60;1.20;;;8.40;91.50;;;10.07;63.82;97719.91;5010881;28;20045;-67
2023/11/16 05:54:39;;;;;;;3.20;1.43;;;8.30;91.80;;;10.09;63.50;97714.44;5011003;28;20050;-67
2023/11/16 05:57:06;;;;;;;4.23;1.60;;;8.40;91.40;;;10.05;63.92;97706.75;5011022;28;20089;-67
2023/11/16 05:59:34;;;;;;;5.07;1.93;;;8.30;91.70;;;10.00;63.72;97713.53;5010562;28;20053;-67
2023/11/16 06:02:01;;;;;;;4.43;1.63;;;8.20;92.50;;;10.02;64.00;97708.88;5011130;28;20034;-68
2023/11/16 06:04:29;;;;;;;3.90;1.67;;;8.30;92.40;;;10.02;63.62;97698.25;5010608;28;20046;-67
2023/11/16 06:06:57;;;;;;;5.83;1.67;;;8.30;92.00;;;10.03;63.78;97692.78;5010941;28;20053;-67
2023/11/16 06:09:24;;;;;;;5.77;1.73;;;8.30;92.30;;;10.07;63.84;97693.31;5013371;28;20068;-67
2023/11/16 06:11:52;;;;;;;4.57;2.20;;;8.30;91.90;;;10.06;63.50;97683.66;5014515;28;20054;-68
2023/11/16 06:14:22;;;;;;;4.93;1.70;;;8.30;90.80;;;10.08;63.89;97680.84;5014241;28;20049;-68
2023/11/16 06:17:04;;;;;;;5.75;1.65;;;8.30;91.30;;;10.03;64.01;97682.16;5007060;28;20038;-69
2023/11/16 06:19:32;;;;;;;3.13;1.63;;;8.30;92.00;;;10.07;63.68;97684.50;5014430;28;20049;-69
2023/11/16 06:22:01;;;;;;;2.33;1.73;;;8.40;91.60;;;10.13;63.67;97679.38;5018913;28;20041;-58
2023/11/16 06:24:42;;;;;;;3.67;1.67;;;8.40;91.20;;;10.13;63.69;97681.22;5014291;28;20044;-70
2023/11/16 06:27:10;;;;;;;2.30;1.50;;;8.40;90.70;;;10.10;63.29;97686.84;5013966;28;20054;-70
2023/11/16 06:29:38;;;;;;;2.93;1.40;;;8.40;91.10;;;10.08;63.36;97692.34;5014180;28;20068;-70
2023/11/16 06:32:07;;;;;;;5.53;3.03;;;8.40;90.80;;;10.10;63.71;97681.50;5014048;28;20513;-70
2023/11/16 06:34:35;;;;;;;3.17;2.13;;;8.40;90.10;;;10.11;63.34;97678.69;5014205;28;20046;-70
2023/11/16 06:37:04;;;;;;;8.80;3.50;;;8.40;90.70;;;10.13;63.29;97686.53;5006486;28;20048;-70
2023/11/16 06:39:32;;;;;;;8.03;2.23;;;8.40;90.80;;;10.15;63.58;97682.72;5013646;28;20049;-69
2023/11/16 06:42:00;;;;;;;6.30;3.60;;;8.40;90.70;;;10.17;63.31;97678.06;5013832;28;20045;-70
2023/11/16 06:44:28;;;;;;;8.13;2.37;;;8.50;89.80;;;10.17;63.43;97678.06;5013704;28;20045;-66
2023/11/16 06:46:57;;;;;;;7.47;2.87;;;8.50;90.50;;;10.15;63.17;97674.72;5013854;28;20042;-67
2023/11/16 06:49:27;;;;;;;6.10;2.47;;;8.40;90.20;;;10.12;63.52;97672.41;5013655;28;20082;-66
2023/11/16 06:51:55;;;;;;;6.80;2.90;;;8.30;91.00;;;10.11;63.78;97664.56;5013717;28;20064;-67
2023/11/16 06:54:26;;;;;;;3.70;2.40;;;8.40;90.70;;;10.12;63.52;97672.41;5013112;28;20046;-66
2023/11/16 06:56:55;;;;;;;4.77;2.03;;;8.40;90.20;;;10.15;63.37;97661.44;5012067;28;20087;-68
2023/11/16 06:59:24;;;;;;;5.20;1.87;;;8.40;89.90;;;10.13;63.14;97650.13;5013195;28;20042;-67
2023/11/16 07:01:52;;;;;;;5.13;2.50;;;8.40;90.00;;;10.15;63.08;97652.63;5012890;28;20508;-67
2023/11/16 07:04:21;;;;;;;4.83;2.30;;;8.40;89.80;;;10.10;63.37;97649.59;5012791;28;20053;-66
2023/11/16 07:06:49;;;;;;;9.23;2.50;;;8.40;90.40;;;10.12;63.28;97644.94;5013075;28;20407;-67
2023/11/16 07:09:17;;;;;;;6.43;3.33;;;8.30;90.50;;;10.15;63.12;97644.66;5013101;28;20046;-65
2023/11/16 07:11:47;;;;;;;5.47;2.13;;;8.40;90.10;;;10.10;62.92;97650.44;5013105;28;20060;-65
2023/11/16 07:14:15;;;;;;;6.03;2.47;;;8.30;90.50;;;10.08;62.94;97640.94;5012635;28;20060;-65
2023/11/16 07:16:44;;;;;;;4.77;2.00;;;8.30;90.50;;;10.06;63.43;97635.78;5012986;28;20041;-66
2023/11/16 07:19:16;;;;;;;7.57;3.67;;;8.30;90.90;;;10.03;63.11;97636.09;5011211;28;20050;-67
2023/11/16 07:21:44;;;;;;;6.20;2.80;;;8.30;91.10;;;10.05;63.33;97631.47;5012402;28;20053;-65
2023/11/16 07:24:11;;;;;;;5.10;2.13;;;8.30;90.60;;;10.02;63.11;97631.75;5012745;28;20045;-66
2023/11/16 07:26:40;;;;;;;3.23;1.83;;;8.30;90.40;;;10.02;63.19;97629.09;5010323;28;20054;-66
2023/11/16 07:29:08;;;;;;;2.57;1.50;;;8.20;90.60;;;10.06;63.32;97638.44;5004763;28;20050;-66
2023/11/16 07:31:37;;;;;;;5.77;1.43;;;8.30;90.70;;;10.07;63.50;97631.31;5012088;28;20096;-68
2023/11/16 07:34:05;;;;;;;3.00;1.63;;;8.30;90.80;;;10.07;63.40;97641.94;5003473;28;20045;-67
2023/11/16 07:36:32;;;;;;;2.87;1.60;;;8.30;90.10;;;10.04;63.06;97625.31;5012228;28;20046;-66
2023/11/16 07:39:00;;;;;;;2.73;1.60;;;8.30;90.40;;;10.04;63.18;97619.13;5012349;28;20050;-66
2023/11/16 07:41:31;;;;;;;4.00;1.60;;;8.30;89.90;;;10.02;63.12;97614.00;5012523;28;20419;-66
2023/11/16 07:43:58;;;;;;;4.87;1.90;;;8.30;89.90;;;10.11;63.04;97608.72;5011996;28;20415;-66
2023/11/16 07:46:26;;;;;;;3.43;1.90;;;8.40;89.60;;;10.11;63.19;97606.88;5012185;28;20392;-66
2023/11/16 07:48:54;;;;;;;3.43;1.47;;;8.40;88.90;;;10.15;63.21;97607.41;5012457;28;20054;-64
2023/11/16 07:51:22;;;;;;;4.27;1.67;;;8.50;89.00;;;10.19;63.21;97600.75;5012195;28;20441;-64
2023/11/16 07:53:55;;;;;;;4.10;1.83;;;8.50;88.90;;;10.23;62.87;97599.44;5011969;28;20046;-64
2023/11/16 07:56:23;;;;;;;3.70;2.03;;;8.50;88.50;;;10.26;63.01;97591.16;5012250;28;20056;-64
2023/11/16 07:58:52;;;;;;;5.77;1.70;;;8.50;88.80;;;10.28;62.65;97596.31;5011664;28;20050;-63
2023/11/16 08:01:29;;;;;;;4.63;2.10;;;8.60;88.50;;;10.30;62.89;97597.00;5013522;28;20050;-51
2023/11/16 08:04:11;;;;;;;3.10;1.93;;;8.50;88.20;;;10.31;62.88;97594.19;5012820;28;20046;-66
2023/11/16 08:06:40;;;;;;;5.50;2.40;;;8.60;88.50;;;10.29;62.52;97593.47;5011895;28;20045;-66
2023/11/16 08:09:09;;;;;;;4.60;1.70;;;8.60;88.70;;;10.31;62.71;97588.03;5010807;28;20439;-65
2023/11/16 08:11:37;;;;;;;3.20;1.67;;;8.60;87.90;;;10.31;62.59;97583.53;5011903;28;20419;-66
2023/11/16 08:14:06;;;;;;;3.57;1.77;;;8.60;87.50;;;10.33;62.88;97568.28;5010437;28;20060;-66
2023/11/16 08:16:34;;;;;;;8.77;4.47;;;8.60;87.90;;;10.35;62.58;97566.28;5012568;28;20263;-67
2023/11/16 08:19:02;;;;;;;7.53;3.70;;;8.60;88.50;;;10.39;62.62;97553.47;5011862;28;20048;-65
2023/11/16 08:21:30;;;;;;;7.47;2.70;;;8.60;88.20;;;10.38;63.03;97543.81;5012093;28;20038;-65
2023/11/16 08:23:58;;;;;;;10.90;4.40;;;8.60;88.70;;;10.40;62.74;97533.84;5011818;28;20046;-65
2023/11/16 08:26:25;;;;;;;3.73;1.80;;;8.60;88.90;;;10.42;62.70;97530.03;5011070;28;20049;-65
2023/11/16 08:28:53;;;;;;;2.93;1.60;;;8.60;89.00;;;10.43;62.81;97526.38;5010969;28;20049;-65
2023/11/16 08:31:21;;;;;;;4.57;2.13;;;8.60;88.80;;;10.52;62.85;97534.38;5010581;28;20045;-65
2023/11/16 08:33:48;;;;;;;2.83;1.67;;;8.70;88.90;;;10.54;62.72;97527.06;5011327;28;20042;-65
2023/11/16 08:36:17;;;;;;;6.80;2.13;;;8.70;88.30;;;10.57;62.51;97527.56;5011546;28;20114;-65
2023/11/16 08:38:45;;;;;;;4.70;1.60;;;8.80;88.30;;;10.61;62.42;97520.09;5011041;28;20065;-65
2023/11/16 08:41:15;;;;;;;4.87;1.97;;;8.80;88.70;;;10.67;62.94;97524.75;5003324;28;20042;-65
2023/11/16 08:43:47;;;;;;;5.40;2.07;;;8.90;88.80;;;10.72;62.60;97524.25;5011301;28;20034;-65
2023/11/16 08:46:20;;;;;;;6.87;2.77;;;8.90;88.40;;;10.77;62.56;97527.25;5003830;28;20045;-65
2023/11/16 08:48:51;;;;;;;3.43;1.93;;;9.00;88.30;;;10.82;62.65;97530.25;5007430;28;20068;-65
2023/11/16 08:51:22;;;;;;;4.30;2.10;;;9.10;87.90;;;10.87;62.29;97525.25;5011310;28;20042;-65
2023/11/16 08:53:55;;;;;;;3.70;2.27;;;9.10;88.20;;;10.89;62.67;97525.91;5010828;28;20042;-64
2023/11/16 08:56:26;;;;;;;5.20;2.35;;;9.20;87.80;;;10.87;62.48;97525.25;4994515;28;20050;-65
2023/11/16 08:59:08;;;;;;;7.33;2.70;;;9.10;87.70;;;10.85;62.34;97516.59;5001472;28;20053;-65
2023/11/16 09:01:37;;;;;;;5.70;2.53;;;9.10;87.80;;;10.85;62.12;97519.25;4993830;28;20053;-64
2023/11/16 09:04:09;;;;;;;4.47;1.87;;;9.10;86.70;;;10.83;62.10;97513.28;5001240;28;20502;-65
2023/11/16 09:06:37;;;;;;;6.67;2.00;;;9.10;86.60;;;10.82;61.85;97509.78;5004438;28;20041;-66
2023/11/16 09:09:33;;;;;;;4.30;2.20;;;9.10;86.60;;;10.81;61.88;97507.28;5003518;28;20046;-65
2023/11/16 09:12:03;;;;;;;2.50;1.38;;;9.10;86.30;;;10.82;61.84;97507.13;5004678;28;20491;-65
2023/11/16 09:14:34;;;;;;;4.13;1.90;;;9.10;86.50;;;10.82;62.17;97496.47;5003335;28;20049;-65
2023/11/16 09:17:05;;;;;;;4.03;1.70;;;9.20;86.10;;;10.87;61.96;97492.47;5004640;28;20057;-65
2023/11/16 09:19:40;;;;;;;4.60;2.10;;;9.20;86.30;;;10.92;61.91;97488.31;5005775;28;20072;-65
2023/11/16 09:22:09;;;;;;;6.50;2.00;;;9.20;85.70;;;10.92;62.17;97485.66;5005990;28;20407;-66
2023/11/16 09:24:39;;;;;;;6.17;2.17;;;9.20;85.70;;;10.91;61.92;97475.97;5003118;28;20382;-65
2023/11/16 09:27:06;;;;;;;4.50;2.27;;;9.20;86.00;;;10.97;61.91;97471.81;5004639;28;20599;-65
2023/11/16 09:29:38;;;;;;;2.80;2.00;;;9.30;86.20;;;11.00;61.78;97460.84;5005770;28;20503;-65
2023/11/16 09:32:10;;;;;;;2.93;1.63;;;9.30;86.00;;;10.99;61.93;97461.81;5005466;28;20305;-65
2023/11/16 09:34:38;;;;;;;5.57;2.00;;;9.30;85.40;;;11.06;61.83;97459.34;5005853;28;20050;-65
2023/11/16 09:37:07;;;;;;;4.27;1.90;;;9.40;85.70;;;11.05;61.53;97455.84;5002166;28;20057;-65
2023/11/16 09:39:34;;;;;;;3.87;1.60;;;9.40;84.90;;;11.09;61.55;97450.97;5003388;28;20534;-65
2023/11/16 09:42:07;;;;;;;6.30;2.17;;;9.40;85.70;;;11.12;61.54;97438.16;4993051;28;20038;-65
2023/11/16 09:44:39;;;;;;;5.23;1.80;;;9.40;85.30;;;11.19;61.88;97433.81;5004004;28;20038;-65
2023/11/16 09:47:25;;;;;;;5.77;1.93;;;9.50;85.80;;;11.28;61.78;97423.97;5008716;28;20050;-65
2023/11/16 09:49:56;;;;;;;3.77;1.90;;;9.60;85.40;;;11.35;61.63;97424.13;5003969;28;20129;-65
2023/11/16 09:52:26;;;;;;;4.87;1.80;;;9.70;85.30;;;11.40;61.65;97408.47;5004210;28;20053;-65
2023/11/16 09:55:00;;;;;;;6.00;2.60;;;9.80;84.90;;;11.43;61.30;97406.25;5009470;28;20038;-65
2023/11/16 09:57:37;;;;;;;4.60;1.73;;;9.90;84.40;;;11.50;61.20;97403.75;5008915;28;20061;-65
2023/11/16 10:00:15;;;;;;;9.03;2.80;;;9.80;84.20;;;11.55;61.49;97414.69;5009570;28;20042;-66
2023/11/16 10:02:46;;;;;;;4.63;2.10;;;9.90;83.90;;;11.58;61.42;97402.88;5008174;28;20410;-66
2023/11/16 10:05:22;;;;;;;4.93;2.00;;;9.90;84.00;;;11.61;60.90;97391.84;4992267;28;20517;-65
2023/11/16 10:07:53;;;;;;;6.03;2.10;;;9.90;83.50;;;11.61;61.35;97382.03;5009265;28;20038;-66
2023/11/16 10:10:21;;;;;;;4.73;1.80;;;9.90;83.80;;;11.66;61.00;97375.34;5008043;28;20058;-65
2023/11/16 10:12:49;;;;;;;11.13;5.93;;;9.90;83.30;;;11.69;60.91;97369.66;5009395;28;20427;-65
2023/11/16 10:15:20;;;;;;;7.30;4.30;;;10.00;83.70;;;11.70;61.03;97372.16;5008205;28;20487;-66
2023/11/16 10:17:48;;;;;;;4.90;2.73;;;10.00;83.40;;;11.71;61.20;97356.97;5008812;28;20049;-65
2023/11/16 10:20:17;;;;;;;7.10;2.53;;;10.00;83.60;;;11.74;61.07;97340.63;5009782;28;20415;-66
2023/11/16 10:22:46;;;;;;;3.03;2.10;;;10.10;83.50;;;11.74;60.93;97336.13;5007792;28;20487;-65
2023/11/16 10:25:15;;;;;;;3.93;1.83;;;10.10;82.60;;;11.75;60.68;97321.78;5009622;28;20051;-65
2023/11/16 10:27:43;;;;;;;9.30;3.00;;;10.10;83.10;;;11.73;60.68;97321.16;5006750;28;20042;-65
2023/11/16 10:30:16;;;;;;;5.20;2.33;;;10.10;83.00;;;11.75;60.88;97312.97;5009594;28;20053;-66
2023/11/16 10:32:47;;;;;;;4.87;2.57;;;10.10;83.40;;;11.78;61.12;97313.44;5009922;28;20054;-65
2023/11/16 10:35:17;;;;;;;7.67;2.43;;;10.20;84.00;;;11.79;61.07;97293.75;5009629;28;20041;-65